Time;durP1;ratioP1;P1;durP2;ratioP2;P2;SDS_P1;SDS_P2;PMS_P1;PMS_P2;Temp;Humidity;BMP_temperature;BMP_pressure;BME280_temperature;BME280_humidity;BME280_pressure;Samples;Min_cycle;Max_cycle;Signal;HPM_P1;HPM_P2
2022/08/28 00:00:17;;;;;;;29.10;26.40;;;17.90;99.90;;;;;;4971791;28;20515;-64
2022/08/28 00:02:45;;;;;;;27.20;24.40;;;18.00;99.90;;;;;;4970432;28;20568;-64
2022/08/28 00:05:11;;;;;;;27.80;24.80;;;18.00;99.90;;;;;;4976910;28;20483;-64
2022/08/28 00:07:36;;;;;;;26.30;23.63;;;18.00;99.90;;;;;;4973001;28;20443;-64
2022/08/28 00:10:04;;;;;;;28.23;24.60;;;18.00;99.90;;;;;;4972276;28;20448;-63
2022/08/28 00:12:30;;;;;;;25.87;23.53;;;18.00;99.90;;;;;;4972358;28;20215;-64
2022/08/28 00:14:56;;;;;;;26.97;24.50;;;18.10;99.90;;;;;;4970846;28;20545;-64
2022/08/28 00:17:21;;;;;;;28.40;25.40;;;18.20;99.90;;;;;;4970365;28;20193;-64
2022/08/28 00:19:47;;;;;;;25.50;23.00;;;18.20;99.90;;;;;;4972037;28;20235;-63
2022/08/28 00:22:13;;;;;;;26.20;23.53;;;18.20;99.90;;;;;;4971857;28;20190;-63
2022/08/28 00:24:38;;;;;;;27.37;24.57;;;18.20;99.90;;;;;;4973022;28;20235;-64
2022/08/28 00:29:48;;;;;;;27.57;24.67;;;18.20;99.90;;;;;;4971436;28;20191;-64
2022/08/28 00:32:13;;;;;;;27.37;24.70;;;18.20;99.90;;;;;;4971947;28;20817;-64
2022/08/28 00:34:39;;;;;;;27.03;24.23;;;18.30;99.90;;;;;;4971265;28;20569;-64
2022/08/28 00:37:05;;;;;;;26.90;24.30;;;18.30;99.90;;;;;;4970041;28;20176;-64
2022/08/28 00:39:31;;;;;;;28.23;25.33;;;18.40;99.90;;;;;;4970888;28;20208;-64
2022/08/28 00:41:57;;;;;;;26.97;23.50;;;18.40;99.90;;;;;;4972394;28;20439;-64
2022/08/28 00:44:24;;;;;;;26.63;24.00;;;18.50;99.90;;;;;;4971644;28;20208;-64
2022/08/28 00:46:52;;;;;;;29.00;26.30;;;18.50;99.90;;;;;;4972367;28;20443;-63
2022/08/28 00:49:22;;;;;;;27.50;24.67;;;18.40;99.90;;;;;;4972467;28;20439;-63
2022/08/28 00:52:07;;;;;;;27.30;24.43;;;18.50;99.90;;;;;;4972540;28;20447;-64
2022/08/28 00:54:41;;;;;;;30.70;27.50;;;18.50;99.90;;;;;;4970738;28;20495;-63
2022/08/28 00:57:09;;;;;;;26.80;24.20;;;18.50;99.90;;;;;;4972088;28;20431;-63
2022/08/28 00:59:36;;;;;;;26.03;23.43;;;18.30;99.90;;;;;;4971387;28;20887;-63
2022/08/28 01:02:03;;;;;;;28.33;25.73;;;18.40;99.90;;;;;;4971779;28;20449;-63
2022/08/28 01:04:31;;;;;;;27.30;24.60;;;18.40;99.90;;;;;;4989911;23;20460;-68
2022/08/28 01:06:59;;;;;;;26.97;24.23;;;18.40;99.90;;;;;;4945719;28;21004;-68
2022/08/28 01:09:28;;;;;;;28.23;24.80;;;18.40;99.90;;;;;;4947173;28;20437;-68
2022/08/28 01:12:00;;;;;;;28.70;25.80;;;18.40;99.90;;;;;;4940190;28;20433;-67
2022/08/28 01:14:28;;;;;;;30.17;27.37;;;18.50;99.90;;;;;;4945666;28;20447;-67
2022/08/28 01:16:55;;;;;;;29.43;26.63;;;18.40;99.90;;;;;;4948546;28;20428;-67
2022/08/28 01:19:37;;;;;;;29.60;26.57;;;18.40;99.90;;;;;;4941737;28;20469;-68
2022/08/28 01:22:16;;;;;;;28.63;25.60;;;18.40;99.90;;;;;;4942163;28;20453;-68
2022/08/28 01:24:43;;;;;;;29.60;26.17;;;18.30;99.90;;;;;;4941804;28;20455;-68
2022/08/28 01:27:10;;;;;;;29.20;25.10;;;18.30;99.90;;;;;;4946735;28;20436;-67
2022/08/28 01:29:35;;;;;;;26.17;23.47;;;18.30;99.90;;;;;;4943324;28;20465;-68
2022/08/28 01:32:01;;;;;;;27.63;24.93;;;18.30;99.90;;;;;;4950252;29;20949;-67
2022/08/28 01:34:27;;;;;;;27.90;24.70;;;18.30;99.90;;;;;;4952546;28;20176;-68
2022/08/28 01:36:53;;;;;;;27.30;24.63;;;18.30;99.90;;;;;;4943676;28;20440;-68
2022/08/28 01:39:21;;;;;;;25.37;22.90;;;18.30;99.90;;;;;;4940799;28;20450;-67
2022/08/28 01:41:50;;;;;;;38.53;25.17;;;18.30;99.90;;;;;;4944059;28;20249;-69
2022/08/28 01:44:18;;;;;;;26.80;24.10;;;18.20;99.90;;;;;;4947211;28;20432;-68
2022/08/28 01:46:45;;;;;;;27.30;24.50;;;18.30;99.90;;;;;;4952467;28;20836;-68
2022/08/28 01:49:11;;;;;;;25.97;23.57;;;18.20;99.90;;;;;;4946240;28;20472;-67
2022/08/28 01:51:40;;;;;;;24.53;22.03;;;18.20;99.90;;;;;;4945476;28;20561;-69
2022/08/28 01:54:07;;;;;;;26.33;23.70;;;18.10;99.90;;;;;;4942387;29;20441;-68
2022/08/28 01:56:33;;;;;;;26.60;23.87;;;18.10;99.90;;;;;;4947325;28;20456;-68
2022/08/28 01:59:02;;;;;;;26.97;23.77;;;18.00;99.90;;;;;;4943102;28;20437;-68
2022/08/28 02:01:28;;;;;;;29.93;23.37;;;18.00;99.90;;;;;;4944224;28;20440;-67
2022/08/28 02:03:54;;;;;;;27.13;24.13;;;17.90;99.90;;;;;;4944150;28;20440;-68
2022/08/28 02:06:20;;;;;;;26.90;24.17;;;17.90;99.90;;;;;;4943793;28;20220;-68
2022/08/28 02:08:46;;;;;;;26.07;23.37;;;17.90;99.90;;;;;;4950374;28;20460;-67
2022/08/28 02:11:12;;;;;;;25.93;23.33;;;17.90;99.90;;;;;;4950770;28;20188;-68
2022/08/28 02:13:38;;;;;;;29.10;26.33;;;17.90;99.90;;;;;;4947142;28;20188;-68
2022/08/28 02:16:08;;;;;;;26.17;23.47;;;18.00;99.90;;;;;;4941491;28;20452;-69
2022/08/28 02:18:34;;;;;;;26.17;23.53;;;17.90;99.90;;;;;;4948863;28;20805;-67
2022/08/28 02:21:00;;;;;;;26.60;23.90;;;17.90;99.90;;;;;;4951207;28;20792;-67
2022/08/28 02:23:25;;;;;;;29.73;25.93;;;17.90;99.90;;;;;;4947140;28;20455;-67
2022/08/28 02:25:51;;;;;;;28.30;24.47;;;18.00;99.90;;;;;;4943595;28;20464;-68
2022/08/28 02:28:17;;;;;;;27.87;25.03;;;17.90;99.90;;;;;;4939487;28;20206;-68
2022/08/28 02:30:42;;;;;;;28.60;25.90;;;18.00;99.90;;;;;;4943644;28;20212;-67
2022/08/28 02:33:08;;;;;;;28.50;25.60;;;17.80;99.90;;;;;;4946764;29;20181;-67
2022/08/28 02:35:33;;;;;;;28.63;25.60;;;17.90;99.90;;;;;;4950745;28;20678;-67
2022/08/28 02:38:00;;;;;;;26.87;24.00;;;17.90;99.90;;;;;;4951382;28;20264;-68
2022/08/28 02:40:26;;;;;;;26.90;24.20;;;18.00;99.90;;;;;;4951630;28;20588;-67
2022/08/28 02:42:52;;;;;;;25.13;22.70;;;18.00;99.90;;;;;;4953880;28;20783;-68
2022/08/28 02:45:19;;;;;;;27.53;24.77;;;18.00;99.90;;;;;;4948306;28;20456;-68
2022/08/28 02:47:46;;;;;;;26.70;24.13;;;18.10;99.90;;;;;;4956793;28;20449;-67
2022/08/28 02:50:16;;;;;;;27.90;23.40;;;18.10;99.90;;;;;;4953356;29;20471;-68
2022/08/28 02:52:41;;;;;;;27.23;24.50;;;18.10;99.90;;;;;;4942018;28;20444;-69
2022/08/28 02:55:09;;;;;;;25.37;22.80;;;18.10;99.90;;;;;;4947467;28;20456;-67
2022/08/28 02:57:34;;;;;;;26.47;23.63;;;18.10;99.90;;;;;;4952392;28;20273;-67
2022/08/28 03:00:02;;;;;;;26.47;23.97;;;18.30;99.90;;;;;;4949901;28;20947;-68
2022/08/28 03:02:28;;;;;;;24.60;22.10;;;18.10;99.90;;;;;;4943637;28;20224;-68
2022/08/28 03:04:54;;;;;;;27.40;21.87;;;18.20;99.90;;;;;;4945944;28;20517;-67
2022/08/28 03:07:21;;;;;;;28.37;25.37;;;18.10;99.90;;;;;;4943115;28;20180;-67
2022/08/28 03:09:47;;;;;;;28.40;25.70;;;18.20;99.90;;;;;;4945124;28;20514;-67
2022/08/28 03:12:13;;;;;;;30.87;25.80;;;18.20;99.90;;;;;;4945594;28;20853;-68
2022/08/28 03:14:39;;;;;;;27.60;23.40;;;18.20;99.90;;;;;;4944292;28;20510;-68
2022/08/28 03:17:06;;;;;;;29.03;25.90;;;18.30;99.90;;;;;;4943773;28;20573;-68
2022/08/28 03:19:32;;;;;;;28.23;25.27;;;18.30;99.90;;;;;;4947860;29;20717;-67
2022/08/28 03:21:57;;;;;;;29.10;26.23;;;18.30;99.90;;;;;;4952739;28;20535;-67
2022/08/28 03:24:23;;;;;;;28.07;25.37;;;18.30;99.90;;;;;;4944665;28;20647;-68
2022/08/28 03:26:49;;;;;;;26.73;23.93;;;18.30;99.90;;;;;;4946300;28;20172;-68
2022/08/28 03:29:15;;;;;;;28.77;25.77;;;18.40;99.90;;;;;;4942296;28;20212;-67
2022/08/28 03:31:40;;;;;;;29.57;26.47;;;18.50;99.90;;;;;;4949915;28;20181;-68
2022/08/28 03:34:06;;;;;;;30.17;25.23;;;18.40;99.90;;;;;;4944211;28;20269;-67
2022/08/28 03:36:32;;;;;;;25.67;22.97;;;18.50;99.90;;;;;;4943812;28;20209;-68
2022/08/28 03:39:00;;;;;;;27.20;24.50;;;18.40;99.90;;;;;;4953959;28;20212;-68
2022/08/28 03:41:27;;;;;;;27.57;24.67;;;18.50;99.90;;;;;;4954139;28;20503;-67
2022/08/28 03:43:56;;;;;;;25.40;23.10;;;18.50;99.90;;;;;;4954288;28;20459;-67
2022/08/28 03:46:25;;;;;;;25.40;22.83;;;18.50;99.90;;;;;;4954926;28;20467;-68
2022/08/28 03:48:52;;;;;;;27.33;24.53;;;18.60;99.90;;;;;;4945871;28;20468;-68
2022/08/28 03:51:21;;;;;;;28.43;25.63;;;18.60;99.90;;;;;;4946621;28;20468;-68
2022/08/28 03:53:47;;;;;;;27.20;24.50;;;18.60;99.90;;;;;;4948265;28;20437;-68
2022/08/28 03:56:20;;;;;;;27.67;24.80;;;18.60;99.90;;;;;;4943802;28;20472;-67
2022/08/28 03:58:47;;;;;;;28.43;25.37;;;18.60;99.90;;;;;;4939275;28;20445;-68
2022/08/28 04:01:13;;;;;;;29.07;26.07;;;18.60;99.90;;;;;;4939038;28;20459;-68
2022/08/28 04:03:39;;;;;;;26.57;24.07;;;18.60;99.90;;;;;;4943467;29;20984;-68
2022/08/28 04:06:04;;;;;;;28.00;25.03;;;18.60;99.90;;;;;;4946833;28;20299;-68
2022/08/28 04:08:30;;;;;;;29.20;26.30;;;18.50;99.90;;;;;;4950228;29;20205;-68
2022/08/28 04:10:58;;;;;;;29.43;25.90;;;18.50;99.90;;;;;;4939970;29;20216;-68
2022/08/28 04:13:23;;;;;;;27.63;24.77;;;18.50;99.90;;;;;;4951162;28;20181;-68
2022/08/28 04:16:09;;;;;;;29.80;25.60;;;18.70;99.90;;;;;;4949131;29;20467;-68
2022/08/28 04:18:36;;;;;;;27.27;24.27;;;18.70;99.90;;;;;;4947825;28;20288;-68
2022/08/28 04:21:06;;;;;;;27.07;24.43;;;18.80;99.90;;;;;;4953909;29;20440;-67
2022/08/28 04:23:33;;;;;;;31.20;27.00;;;18.70;99.90;;;;;;4950929;28;20472;-68
2022/08/28 04:25:59;;;;;;;28.43;25.57;;;18.70;99.90;;;;;;4952378;28;20464;-68
2022/08/28 04:28:25;;;;;;;27.80;24.97;;;18.70;99.90;;;;;;4946085;29;20527;-68
2022/08/28 04:30:54;;;;;;;28.97;25.33;;;18.70;99.90;;;;;;4950689;28;20440;-68
2022/08/28 04:33:24;;;;;;;26.93;24.37;;;18.60;99.90;;;;;;4951249;28;20437;-68
2022/08/28 04:35:51;;;;;;;29.67;26.57;;;18.60;99.90;;;;;;4952090;28;20527;-68
2022/08/28 04:38:17;;;;;;;29.37;26.07;;;18.50;99.90;;;;;;4952693;28;20531;-67
2022/08/28 04:40:42;;;;;;;30.53;26.77;;;18.60;99.90;;;;;;4950072;28;20540;-68
2022/08/28 04:43:08;;;;;;;30.90;27.70;;;18.50;99.90;;;;;;4952776;28;20432;-68
2022/08/28 04:45:42;;;;;;;28.57;25.73;;;18.70;99.90;;;;;;4942888;28;20209;-68
2022/08/28 04:48:08;;;;;;;29.30;25.07;;;18.70;99.90;;;;;;4948903;29;20441;-68
2022/08/28 04:50:33;;;;;;;29.97;26.87;;;18.60;99.90;;;;;;4949110;28;21003;-68
2022/08/28 04:52:59;;;;;;;26.27;23.83;;;18.60;99.90;;;;;;4951367;29;20180;-68
2022/08/28 04:55:24;;;;;;;29.47;25.53;;;18.70;99.90;;;;;;4940403;29;20208;-68
2022/08/28 04:57:50;;;;;;;31.80;28.40;;;18.70;99.90;;;;;;4950825;29;20273;-67
2022/08/28 05:00:16;;;;;;;29.07;25.87;;;18.60;99.90;;;;;;4946460;28;20204;-67
2022/08/28 05:02:41;;;;;;;30.77;27.47;;;18.60;99.90;;;;;;4947827;29;20441;-68
2022/08/28 05:05:07;;;;;;;31.50;25.83;;;18.60;99.90;;;;;;4948733;28;20216;-68
2022/08/28 05:07:33;;;;;;;29.53;26.47;;;18.60;99.90;;;;;;4939074;28;20272;-67
2022/08/28 05:09:59;;;;;;;29.70;26.50;;;18.60;99.90;;;;;;4942861;28;20635;-68
2022/08/28 05:12:25;;;;;;;30.80;27.20;;;18.60;99.90;;;;;;4940997;28;20195;-68
2022/08/28 05:14:51;;;;;;;29.07;26.13;;;18.60;99.90;;;;;;4946493;28;20287;-67
2022/08/28 05:17:16;;;;;;;30.30;25.60;;;18.70;99.90;;;;;;4950931;28;20469;-67
2022/08/28 05:19:42;;;;;;;27.07;24.20;;;18.70;99.90;;;;;;4946407;28;20189;-67
2022/08/28 05:22:11;;;;;;;29.37;26.40;;;18.70;99.90;;;;;;4945062;28;20710;-68
2022/08/28 05:24:38;;;;;;;28.30;25.17;;;18.70;99.90;;;;;;4948901;28;20205;-67
2022/08/28 05:27:04;;;;;;;26.90;23.90;;;18.80;99.90;;;;;;4956279;28;20526;-67
2022/08/28 05:29:29;;;;;;;29.17;26.07;;;18.80;99.90;;;;;;4983294;28;20565;-66
2022/08/28 05:31:55;;;;;;;28.93;25.97;;;18.70;99.90;;;;;;4983942;28;20885;-68
2022/08/28 05:34:21;;;;;;;29.67;24.40;;;18.70;99.90;;;;;;4990161;28;20699;-67
2022/08/28 05:36:47;;;;;;;27.37;24.27;;;18.80;99.90;;;;;;4986143;28;20691;-67
2022/08/28 05:39:13;;;;;;;29.23;26.43;;;18.80;99.90;;;;;;4986798;28;20207;-67
2022/08/28 05:41:42;;;;;;;28.37;25.53;;;18.80;99.90;;;;;;4979848;28;20473;-68
2022/08/28 05:44:09;;;;;;;28.90;25.47;;;18.90;99.90;;;;;;4988390;28;20179;-68
2022/08/28 05:46:41;;;;;;;28.90;26.10;;;19.00;99.90;;;;;;4987575;28;20589;-67
2022/08/28 05:49:07;;;;;;;27.90;25.20;;;19.00;99.90;;;;;;4982989;28;20501;-67
2022/08/28 05:51:34;;;;;;;27.67;25.00;;;19.00;99.90;;;;;;4980772;28;20443;-67
2022/08/28 05:54:01;;;;;;;25.17;22.60;;;19.00;99.90;;;;;;4984613;28;20501;-67
2022/08/28 05:56:33;;;;;;;27.20;24.20;;;19.00;99.90;;;;;;4981228;28;20454;-67
2022/08/28 05:59:00;;;;;;;23.93;21.60;;;19.20;99.90;;;;;;4981456;28;20435;-66
2022/08/28 06:01:29;;;;;;;28.50;24.20;;;19.10;99.90;;;;;;4987666;28;20450;-66
2022/08/28 06:04:04;;;;;;;26.03;23.43;;;19.20;99.90;;;;;;4989670;28;20449;-66
2022/08/28 06:06:33;;;;;;;30.53;24.73;;;19.30;99.90;;;;;;4981169;28;20504;-64
2022/08/28 06:09:23;;;;;;;28.70;25.63;;;19.40;99.90;;;;;;4994336;28;20504;-67
2022/08/28 06:11:49;;;;;;;27.70;24.70;;;19.30;99.90;;;;;;4993052;28;20484;-67
2022/08/28 06:14:18;;;;;;;26.13;23.30;;;19.30;99.90;;;;;;4984912;28;20434;-67
2022/08/28 06:16:49;;;;;;;27.03;23.77;;;19.30;99.90;;;;;;4996329;28;20675;-67
2022/08/28 06:19:15;;;;;;;31.97;24.37;;;19.20;99.90;;;;;;4989304;28;20473;-67
2022/08/28 06:21:41;;;;;;;25.70;23.17;;;19.20;99.90;;;;;;4994376;28;20471;-67
2022/08/28 06:24:08;;;;;;;30.70;24.87;;;19.30;99.90;;;;;;4985094;28;20458;-67
2022/08/28 06:26:34;;;;;;;26.10;23.47;;;19.40;99.90;;;;;;4995064;28;20199;-66
2022/08/28 06:29:02;;;;;;;26.50;23.83;;;19.30;99.90;;;;;;4987021;28;20469;-69
2022/08/28 06:31:28;;;;;;;27.53;24.37;;;19.40;99.90;;;;;;4986807;28;20271;-67
2022/08/28 06:33:56;;;;;;;24.33;22.07;;;19.40;99.90;;;;;;4995398;28;20512;-67
2022/08/28 06:36:26;;;;;;;23.87;21.37;;;19.50;99.90;;;;;;4990689;28;20980;-67
2022/08/28 06:38:52;;;;;;;26.17;22.37;;;19.50;99.90;;;;;;4976428;28;20454;-67
2022/08/28 06:41:18;;;;;;;25.90;23.27;;;19.60;99.90;;;;;;4962255;28;20937;-67
2022/08/28 06:43:44;;;;;;;24.70;21.97;;;19.60;99.90;;;;;;4970748;28;20444;-67
2022/08/28 06:46:09;;;;;;;24.80;22.20;;;19.70;99.90;;;;;;4970661;28;20451;-67
2022/08/28 06:48:35;;;;;;;25.37;22.90;;;19.60;99.90;;;;;;4973156;28;20207;-67
2022/08/28 06:51:03;;;;;;;23.30;20.80;;;19.60;99.90;;;;;;4974201;28;20368;-67
2022/08/28 06:53:29;;;;;;;23.83;21.37;;;19.60;99.90;;;;;;4973841;28;20638;-67
2022/08/28 06:56:10;;;;;;;26.07;23.37;;;19.60;99.90;;;;;;4973662;28;20482;-67
2022/08/28 06:58:39;;;;;;;26.43;23.80;;;19.70;99.90;;;;;;4969482;28;20168;-67
2022/08/28 07:01:13;;;;;;;23.20;20.33;;;19.70;99.90;;;;;;4971212;28;20493;-67
2022/08/28 07:03:39;;;;;;;22.57;20.37;;;19.80;99.90;;;;;;4976166;28;20746;-67
2022/08/28 07:06:06;;;;;;;23.77;21.20;;;19.80;99.90;;;;;;5025619;23;20508;-64
2022/08/28 07:08:33;;;;;;;22.37;20.10;;;19.70;99.90;;;;;;5025967;28;20567;-62
2022/08/28 07:11:08;;;;;;;23.33;20.37;;;19.90;99.90;;;;;;5036567;28;20515;-62
2022/08/28 07:13:34;;;;;;;20.70;18.90;;;20.10;99.90;;;;;;5036891;28;20454;-62
2022/08/28 07:15:59;;;;;;;22.60;20.20;;;20.30;99.90;;;;;;5023381;28;20969;-62
2022/08/28 07:18:25;;;;;;;24.67;21.80;;;20.50;99.90;;;;;;5014200;28;20527;-62
2022/08/28 07:20:56;;;;;;;22.27;19.97;;;20.60;99.90;;;;;;5014151;28;20191;-62
2022/08/28 07:23:21;;;;;;;19.60;17.60;;;20.70;99.90;;;;;;5005431;28;20181;-65
2022/08/28 07:25:47;;;;;;;19.97;17.60;;;20.80;99.90;;;;;;5013057;28;20832;-65
2022/08/28 07:28:12;;;;;;;19.93;18.03;;;20.90;99.90;;;;;;5010560;28;20194;-65
2022/08/28 07:30:38;;;;;;;21.47;19.20;;;20.90;99.90;;;;;;5012666;28;20253;-65
2022/08/28 07:33:03;;;;;;;20.00;18.10;;;21.10;99.90;;;;;;5013788;28;20182;-62
2022/08/28 07:35:29;;;;;;;19.07;17.03;;;21.20;99.90;;;;;;5012797;28;20241;-62
2022/08/28 07:37:54;;;;;;;19.13;17.30;;;21.20;99.90;;;;;;5013503;28;20526;-65
2022/08/28 07:40:21;;;;;;;19.07;17.17;;;21.50;99.90;;;;;;5011738;28;20184;-64
2022/08/28 07:45:30;;;;;;;20.83;18.73;;;21.80;99.90;;;;;;5006550;28;20527;-62
2022/08/28 07:47:57;;;;;;;19.33;17.50;;;21.90;99.90;;;;;;5004858;28;20438;-62
2022/08/28 07:50:22;;;;;;;21.67;19.40;;;22.00;99.90;;;;;;5001267;28;20253;-63
2022/08/28 07:52:48;;;;;;;19.57;16.70;;;22.00;99.90;;;;;;4995186;28;20760;-64
2022/08/28 07:55:13;;;;;;;22.97;20.77;;;22.00;99.90;;;;;;5011210;28;20733;-62
2022/08/28 07:57:39;;;;;;;18.67;17.07;;;22.10;99.90;;;;;;5012860;28;20186;-62
2022/08/28 08:00:06;;;;;;;18.50;16.70;;;22.20;99.90;;;;;;5012023;28;20179;-63
2022/08/28 08:02:31;;;;;;;18.40;16.70;;;22.30;99.90;;;;;;5010321;28;20683;-62
2022/08/28 08:04:57;;;;;;;17.43;15.50;;;22.40;99.90;;;;;;5012116;28;20473;-63
2022/08/28 08:07:22;;;;;;;17.90;16.20;;;22.60;99.90;;;;;;5011012;28;20187;-62
2022/08/28 08:09:48;;;;;;;17.83;16.00;;;22.60;99.90;;;;;;5012288;28;20276;-62
2022/08/28 08:12:13;;;;;;;15.90;14.43;;;22.60;99.90;;;;;;5012539;28;20183;-64
2022/08/28 08:14:40;;;;;;;17.13;14.87;;;22.60;99.90;;;;;;5012421;28;20198;-61
2022/08/28 08:17:07;;;;;;;16.57;14.83;;;22.70;99.90;;;;;;5010496;28;20191;-62
2022/08/28 08:19:33;;;;;;;18.57;16.50;;;22.90;99.90;;;;;;5011102;28;20441;-65
2022/08/28 08:21:58;;;;;;;16.13;14.53;;;22.90;99.90;;;;;;5011795;28;20437;-62
2022/08/28 08:24:25;;;;;;;15.50;14.10;;;23.10;99.90;;;;;;5010656;28;21404;-65
2022/08/28 08:26:53;;;;;;;16.03;14.23;;;23.30;99.90;;;;;;5012744;28;20588;-63
2022/08/28 08:29:19;;;;;;;17.53;16.00;;;23.40;99.90;;;;;;5006758;28;20458;-62
2022/08/28 08:31:52;;;;;;;16.13;14.70;;;23.60;99.90;;;;;;5011161;28;20468;-62
2022/08/28 08:34:18;;;;;;;16.47;14.03;;;23.80;99.90;;;;;;5009918;28;20434;-62
2022/08/28 08:36:43;;;;;;;16.20;14.80;;;24.00;99.90;;;;;;5009579;28;20459;-62
2022/08/28 08:39:09;;;;;;;16.13;14.53;;;24.10;99.90;;;;;;5007260;28;20191;-62
2022/08/28 08:41:47;;;;;;;16.70;15.10;;;24.20;99.90;;;;;;5007306;28;20684;-62
2022/08/28 08:44:33;;;;;;;16.70;15.20;;;24.00;99.90;;;;;;5009048;28;20257;-62
2022/08/28 08:47:17;;;;;;;15.97;14.50;;;24.00;99.90;;;;;;5010864;28;20465;-63
2022/08/28 08:49:49;;;;;;;20.30;14.60;;;23.70;99.90;;;;;;5005979;28;20461;-63
2022/08/28 08:52:30;;;;;;;15.73;14.30;;;23.50;99.90;;;;;;5011543;28;20797;-63
2022/08/28 08:55:02;;;;;;;16.20;14.77;;;23.70;99.90;;;;;;5010531;28;20449;-65
2022/08/28 08:57:29;;;;;;;15.03;13.63;;;24.10;99.90;;;;;;5011072;28;20462;-63
2022/08/28 08:59:54;;;;;;;15.23;13.93;;;24.20;99.90;;;;;;5011455;28;20464;-62
2022/08/28 09:02:27;;;;;;;15.50;14.20;;;24.40;99.90;;;;;;5011081;28;20437;-63
2022/08/28 09:05:04;;;;;;;14.77;13.57;;;24.40;99.90;;;;;;5010776;28;20555;-62
2022/08/28 09:07:37;;;;;;;15.03;13.63;;;24.40;99.90;;;;;;5010150;28;20449;-62
2022/08/28 09:10:05;;;;;;;16.47;14.93;;;24.60;99.90;;;;;;5009795;28;20806;-63
2022/08/28 09:12:48;;;;;;;15.20;13.77;;;24.90;99.90;;;;;;5009386;28;20429;-63
2022/08/28 09:15:25;;;;;;;13.37;12.17;;;25.10;99.90;;;;;;5009004;28;20535;-63
2022/08/28 09:17:55;;;;;;;16.83;12.93;;;25.40;99.90;;;;;;5009814;28;20433;-63
2022/08/28 09:20:26;;;;;;;12.80;11.67;;;25.50;99.90;;;;;;5008983;28;20461;-63
2022/08/28 09:22:53;;;;;;;13.80;11.20;;;25.80;99.90;;;;;;5009529;28;20445;-63
2022/08/28 09:25:43;;;;;;;12.40;11.30;;;26.20;99.90;;;;;;5005981;28;20740;-63
2022/08/28 09:28:20;;;;;;;11.73;10.73;;;26.90;99.90;;;;;;5001539;28;21039;-63
2022/08/28 09:30:55;;;;;;;13.93;12.63;;;27.60;99.90;;;;;;5008821;28;20499;-63
2022/08/28 09:33:51;;;;;;;14.50;13.17;;;28.10;99.90;;;;;;5005417;28;20521;-63
2022/08/28 09:36:35;;;;;;;11.73;10.63;;;28.10;99.90;;;;;;5008194;28;20545;-62
2022/08/28 09:39:25;;;;;;;11.87;11.00;;;28.30;99.90;;;;;;5007179;28;20429;-63
2022/08/28 09:45:05;;;;;;;13.60;12.20;;;27.70;99.90;;;;;;5004712;28;20531;-63
2022/08/28 09:47:47;;;;;;;10.80;9.90;;;27.40;99.90;;;;;;5008222;28;20449;-62
2022/08/28 09:50:33;;;;;;;11.33;10.30;;;27.50;99.90;;;;;;5005913;28;20523;-63
2022/08/28 09:53:20;;;;;;;11.90;9.73;;;28.20;99.90;;;;;;5007280;28;20926;-63
2022/08/28 09:56:06;;;;;;;12.13;11.03;;;29.50;99.90;;;;;;5006257;28;20516;-63
2022/08/28 09:58:39;;;;;;;10.30;9.33;;;29.30;99.90;;;;;;5003946;28;20499;-62
2022/08/28 10:01:14;;;;;;;10.37;9.60;;;30.20;99.90;;;;;;5005935;28;20438;-62
2022/08/28 10:03:55;;;;;;;14.67;13.47;;;30.90;99.90;;;;;;5005992;28;20449;-63
2022/08/28 10:06:25;;;;;;;16.13;14.67;;;30.50;99.90;;;;;;5005212;28;20512;-63
2022/08/28 10:09:23;;;;;;;10.23;9.50;;;30.40;99.90;;;;;;5007969;28;20465;-62
2022/08/28 10:12:03;;;;;;;10.30;9.33;;;30.30;99.90;;;;;;5001731;28;20442;-62
2022/08/28 10:14:59;;;;;;;10.03;9.33;;;30.30;99.90;;;;;;4997773;28;20498;-62
2022/08/28 10:17:39;;;;;;;9.47;8.57;;;30.10;99.90;;;;;;5001508;28;20493;-63
2022/08/28 10:20:37;;;;;;;10.47;9.60;;;30.20;99.90;;;;;;5008713;28;20465;-63
2022/08/28 10:23:27;;;;;;;9.87;9.07;;;31.60;98.10;;;;;;5007454;28;20437;-63
2022/08/28 10:26:02;;;;;;;9.57;8.83;;;32.90;94.90;;;;;;5007717;28;20973;-63
2022/08/28 10:28:46;;;;;;;10.67;9.63;;;33.20;93.70;;;;;;4995599;28;20461;-63
2022/08/28 10:31:40;;;;;;;9.77;8.83;;;32.80;92.60;;;;;;5010862;28;20438;-63
2022/08/28 10:34:57;;;;;;;10.47;9.57;;;32.60;93.60;;;;;;5010035;28;20437;-63
2022/08/28 10:37:54;;;;;;;11.37;10.47;;;31.80;94.10;;;;;;4929172;29;20442;-63
2022/08/28 10:40:27;;;;;;;10.43;9.60;;;31.60;94.70;;;;;;4930419;29;21064;-63
2022/08/28 10:43:05;;;;;;;10.20;9.27;;;31.80;94.20;;;;;;4996245;28;20453;-62
2022/08/28 10:45:33;;;;;;;10.43;9.43;;;31.00;95.10;;;;;;5004029;28;20465;-63
2022/08/28 10:48:28;;;;;;;9.83;8.97;;;31.10;95.70;;;;;;5010135;28;20810;-63
2022/08/28 10:51:01;;;;;;;8.00;7.47;;;32.90;93.60;;;;;;4987354;28;20453;-63
2022/08/28 10:53:30;;;;;;;9.43;8.70;;;34.60;91.10;;;;;;5005531;28;20456;-63
2022/08/28 10:56:02;;;;;;;10.67;9.80;;;34.90;88.80;;;;;;5010861;28;20536;-63
2022/08/28 10:58:31;;;;;;;9.07;8.20;;;34.10;88.70;;;;;;5006357;28;20438;-63
2022/08/28 11:01:01;;;;;;;9.27;8.57;;;33.50;87.60;;;;;;5009750;28;20433;-63
2022/08/28 11:03:32;;;;;;;9.73;9.03;;;33.80;86.50;;;;;;5007089;28;20844;-63
2022/08/28 11:06:07;;;;;;;8.40;7.70;;;34.00;84.90;;;;;;5010113;28;20828;-63
2022/08/28 11:08:35;;;;;;;8.80;8.10;;;33.90;85.90;;;;;;5009145;28;20475;-63
2022/08/28 11:11:05;;;;;;;10.90;9.80;;;33.70;87.70;;;;;;5008072;28;20465;-63
2022/08/28 11:13:55;;;;;;;10.73;9.77;;;31.50;90.40;;;;;;5006183;28;20958;-63
2022/08/28 11:16:35;;;;;;;11.23;10.03;;;30.60;93.00;;;;;;5012813;28;21004;-63
2022/08/28 11:19:26;;;;;;;9.90;9.00;;;30.00;94.00;;;;;;5009033;28;20437;-63
2022/08/28 11:22:19;;;;;;;9.17;8.40;;;30.50;93.90;;;;;;5008947;28;20473;-63
2022/08/28 11:24:57;;;;;;;10.43;8.43;;;30.80;93.50;;;;;;5004488;28;20451;-63
2022/08/28 11:27:46;;;;;;;7.97;7.33;;;32.30;91.20;;;;;;5006390;28;20484;-63
2022/08/28 11:30:14;;;;;;;8.70;8.10;;;34.10;87.80;;;;;;5003666;28;20564;-63
2022/08/28 11:32:49;;;;;;;7.30;6.80;;;36.50;80.90;;;;;;5009215;28;20854;-63
2022/08/28 11:35:33;;;;;;;10.10;9.30;;;37.10;75.20;;;;;;5006868;28;20559;-63
2022/08/28 11:37:59;;;;;;;7.70;7.00;;;38.30;69.40;;;;;;5012256;28;20437;-63
2022/08/28 11:40:30;;;;;;;8.20;7.37;;;39.50;63.10;;;;;;5007921;28;20426;-64
2022/08/28 11:43:14;;;;;;;8.40;7.80;;;39.80;60.50;;;;;;5007135;28;20179;-64
2022/08/28 11:45:42;;;;;;;7.00;6.50;;;38.60;59.30;;;;;;5006206;28;20557;-64
2022/08/28 11:48:34;;;;;;;7.57;6.97;;;40.00;59.70;;;;;;5004833;28;20489;-63
2022/08/28 11:51:05;;;;;;;7.37;6.87;;;39.60;57.70;;;;;;5013057;28;20446;-63
2022/08/28 11:53:46;;;;;;;7.37;6.87;;;38.10;57.60;;;;;;4995413;28;20450;-63
2022/08/28 11:56:32;;;;;;;8.17;7.47;;;36.10;59.70;;;;;;5001390;28;20445;-63
2022/08/28 11:59:23;;;;;;;8.57;7.97;;;34.20;62.90;;;;;;5012682;28;20975;-63
2022/08/28 12:01:49;;;;;;;8.70;8.00;;;33.00;65.80;;;;;;5009397;28;20456;-63
2022/08/28 12:04:21;;;;;;;8.20;7.30;;;32.90;67.40;;;;;;5010051;28;20492;-63
2022/08/28 12:06:53;;;;;;;8.00;7.40;;;35.10;64.70;;;;;;5008991;28;20833;-63
2022/08/28 12:09:24;;;;;;;7.40;6.70;;;37.40;59.30;;;;;;5008231;28;20500;-63
2022/08/28 12:11:53;;;;;;;8.07;7.37;;;39.10;57.70;;;;;;5009395;28;20457;-63
2022/08/28 12:14:24;;;;;;;8.20;7.60;;;40.80;54.60;;;;;;5009950;28;20430;-63
2022/08/28 12:17:06;;;;;;;8.00;7.20;;;40.70;52.90;;;;;;5009826;28;20454;-63
2022/08/28 12:19:40;;;;;;;7.10;6.50;;;39.40;53.60;;;;;;5006170;28;20438;-63
2022/08/28 12:22:10;;;;;;;8.20;7.60;;;40.40;54.30;;;;;;5009294;28;20928;-63
2022/08/28 12:24:45;;;;;;;7.57;7.07;;;40.00;54.50;;;;;;5008502;28;20480;-63
2022/08/28 12:27:13;;;;;;;8.07;7.57;;;38.50;55.30;;;;;;5009510;28;20433;-63
2022/08/28 12:29:47;;;;;;;7.70;7.03;;;36.70;56.60;;;;;;5005669;28;20866;-63
2022/08/28 12:32:41;;;;;;;11.13;7.80;;;36.50;58.30;;;;;;5008490;28;20441;-63
2022/08/28 12:35:12;;;;;;;7.20;6.70;;;36.30;57.60;;;;;;5006763;28;20453;-63
2022/08/28 12:37:59;;;;;;;7.53;7.03;;;35.40;58.70;;;;;;5011504;28;20441;-63
2022/08/28 12:40:26;;;;;;;8.50;7.80;;;34.70;59.70;;;;;;5004076;28;20448;-63
2022/08/28 12:42:55;;;;;;;7.10;6.60;;;33.90;60.80;;;;;;5010163;28;20430;-63
2022/08/28 12:45:35;;;;;;;7.53;6.83;;;35.70;59.30;;;;;;5006909;28;20546;-63
2022/08/28 12:48:08;;;;;;;7.13;6.63;;;38.20;56.40;;;;;;5007003;28;20993;-63
2022/08/28 12:50:37;;;;;;;7.10;6.60;;;40.50;53.40;;;;;;5010740;28;20540;-63
2022/08/28 12:53:06;;;;;;;7.73;7.17;;;39.80;53.50;;;;;;5008676;28;20433;-64
2022/08/28 12:55:32;;;;;;;7.07;6.47;;;40.40;53.80;;;;;;5006485;28;20446;-63